Time;durP1;ratioP1;P1;durP2;ratioP2;P2;SDS_P1;SDS_P2;PMS_P1;PMS_P2;Temp;Humidity;BMP_temperature;BMP_pressure;BME280_temperature;BME280_humidity;BME280_pressure;Samples;Min_cycle;Max_cycle;Signal;HPM_P1;HPM_P2
2023/05/14 00:01:25;;;;;;;5.85;3.80;;;12.40;99.90;;;12.43;100.00;101234.28;5211554;28;20148;-68
2023/05/14 00:03:57;;;;;;;4.95;3.72;;;12.30;99.90;;;12.38;100.00;101230.63;5204710;28;20088;-68
2023/05/14 00:06:30;;;;;;;6.18;3.83;;;12.20;99.90;;;12.33;100.00;101240.06;5211592;28;20056;-68
2023/05/14 00:09:03;;;;;;;5.50;3.53;;;12.20;99.90;;;12.28;100.00;101241.59;5198106;28;20136;-68
2023/05/14 00:11:35;;;;;;;5.20;3.40;;;12.10;99.90;;;12.27;100.00;101229.38;5205673;28;20050;-69
2023/05/14 00:14:07;;;;;;;9.10;3.45;;;12.10;99.90;;;12.23;100.00;101239.72;5191620;28;20114;-69
2023/05/14 00:16:39;;;;;;;5.18;3.53;;;12.10;99.90;;;12.20;100.00;101239.63;5213693;28;20068;-68
2023/05/14 00:19:12;;;;;;;5.97;4.10;;;12.10;99.90;;;12.19;100.00;101242.16;5200244;28;20059;-69
2023/05/14 00:21:47;;;;;;;5.70;3.60;;;12.10;99.90;;;12.14;100.00;101249.84;5212062;28;20049;-69
2023/05/14 00:24:19;;;;;;;5.38;3.60;;;12.00;99.90;;;12.11;100.00;101238.38;5211552;28;20173;-68
2023/05/14 00:26:52;;;;;;;5.22;3.30;;;12.00;99.90;;;12.05;100.00;101231.22;5193368;28;20107;-69
2023/05/14 00:29:24;;;;;;;5.00;3.55;;;11.90;99.90;;;12.01;100.00;101231.97;5211455;28;20119;-69
2023/05/14 00:31:57;;;;;;;6.07;3.63;;;11.90;99.90;;;11.97;100.00;101229.16;5213686;28;20114;-69
2023/05/14 00:34:29;;;;;;;6.28;3.67;;;11.90;99.90;;;11.93;100.00;101233.38;5215152;28;20405;-68
2023/05/14 00:37:03;;;;;;;4.75;3.28;;;11.80;99.90;;;11.90;100.00;101228.94;5211465;28;20785;-68
2023/05/14 00:39:35;;;;;;;5.00;3.47;;;11.80;99.90;;;11.89;100.00;101221.06;5194175;28;20041;-68
2023/05/14 00:42:08;;;;;;;6.45;4.00;;;11.80;99.90;;;11.88;100.00;101229.75;5197399;28;20071;-70
2023/05/14 00:44:40;;;;;;;5.05;3.65;;;11.70;99.90;;;11.84;100.00;101222.63;5202493;28;20041;-69
2023/05/14 00:47:13;;;;;;;4.78;3.45;;;11.70;99.90;;;11.81;100.00;101218.19;5211365;28;20116;-68
2023/05/14 00:49:45;;;;;;;5.53;3.38;;;11.70;99.90;;;11.78;100.00;101217.13;5193082;28;20049;-68
2023/05/14 00:52:19;;;;;;;4.97;3.33;;;11.70;99.90;;;11.75;100.00;101214.41;5210740;28;20045;-69
2023/05/14 00:54:51;;;;;;;5.65;3.70;;;11.60;99.90;;;11.74;100.00;101215.25;5193192;28;20038;-70
2023/05/14 00:57:24;;;;;;;4.65;3.22;;;11.60;99.90;;;11.69;100.00;101210.75;5209811;28;20080;-71
2023/05/14 00:59:56;;;;;;;5.13;3.50;;;11.60;99.90;;;11.67;100.00;101220.25;5192586;28;20045;-69
2023/05/14 01:02:28;;;;;;;5.45;3.38;;;11.60;99.90;;;11.64;100.00;101217.50;5216647;28;20047;-67
2023/05/14 01:05:01;;;;;;;5.25;3.50;;;11.50;99.90;;;11.62;100.00;101215.69;5203281;28;20048;-70
2023/05/14 01:07:46;;;;;;;5.30;3.55;;;11.50;99.90;;;11.60;100.00;101207.78;5210252;28;20140;-68
2023/05/14 01:10:29;;;;;;;6.32;3.70;;;11.50;99.90;;;11.58;100.00;101217.28;5209429;28;20056;-68
2023/05/14 01:13:13;;;;;;;6.20;3.72;;;11.50;99.90;;;11.55;100.00;101216.28;5193492;28;20041;-67
2023/05/14 01:15:47;;;;;;;4.45;2.92;;;11.50;99.90;;;11.52;100.00;101208.34;5211896;28;20055;-68
2023/05/14 01:18:20;;;;;;;4.75;3.08;;;11.40;99.90;;;11.50;100.00;101205.66;5208283;28;20141;-68
2023/05/14 01:20:54;;;;;;;5.75;3.70;;;11.40;99.90;;;11.45;100.00;101207.22;5200130;28;20053;-69
2023/05/14 01:23:27;;;;;;;4.97;3.50;;;11.40;99.90;;;11.43;100.00;101197.56;5192632;28;20049;-70
2023/05/14 01:25:59;;;;;;;4.57;3.42;;;11.30;99.90;;;11.44;100.00;101205.44;5210409;28;20121;-68
2023/05/14 01:28:36;;;;;;;4.45;2.90;;;11.30;99.90;;;11.46;100.00;101208.97;5218200;28;20056;-69
2023/05/14 01:31:13;;;;;;;5.07;3.03;;;11.40;99.90;;;11.48;100.00;101209.94;5191988;28;20049;-69
2023/05/14 01:33:49;;;;;;;5.68;3.85;;;11.40;99.90;;;11.50;100.00;101204.78;5194426;28;20052;-69
2023/05/14 01:36:22;;;;;;;5.55;3.95;;;11.40;99.90;;;11.53;100.00;101200.53;5214899;28;20086;-70
2023/05/14 01:38:57;;;;;;;5.95;3.53;;;11.40;99.90;;;11.57;100.00;101197.22;5193420;28;20451;-67
2023/05/14 01:41:31;;;;;;;5.85;3.78;;;11.50;99.90;;;11.58;100.00;101199.00;5208587;28;20041;-68
2023/05/14 01:44:04;;;;;;;5.13;3.50;;;11.40;99.90;;;11.55;100.00;101196.28;5203152;28;20129;-68
2023/05/14 01:46:36;;;;;;;5.10;3.58;;;11.50;99.90;;;11.56;100.00;101199.78;5193071;28;20046;-69
2023/05/14 01:49:09;;;;;;;6.13;3.95;;;11.40;99.90;;;11.53;100.00;101195.31;5215166;28;20045;-69
2023/05/14 01:51:41;;;;;;;5.53;3.78;;;11.40;99.90;;;11.52;100.00;101198.78;5212386;28;20519;-68
2023/05/14 01:54:17;;;;;;;6.65;3.88;;;11.40;99.90;;;11.49;100.00;101203.91;5210509;28;20126;-68
2023/05/14 01:56:49;;;;;;;6.30;3.72;;;11.40;99.90;;;11.47;100.00;101199.44;5215604;28;20049;-68
2023/05/14 01:59:22;;;;;;;6.20;4.28;;;11.40;99.90;;;11.43;100.00;101187.13;5200899;28;20055;-69
2023/05/14 02:01:54;;;;;;;5.85;3.60;;;11.40;99.90;;;11.41;100.00;101195.78;5209213;28;20047;-69
2023/05/14 02:04:26;;;;;;;6.50;3.55;;;11.30;99.90;;;11.37;100.00;101191.25;5200391;28;20051;-69
2023/05/14 02:06:58;;;;;;;5.22;3.80;;;11.30;99.90;;;11.36;100.00;101192.09;5214135;28;20040;-69
2023/05/14 02:09:32;;;;;;;6.75;3.92;;;11.30;99.90;;;11.33;100.00;101185.88;5213990;28;20118;-68
2023/05/14 02:12:05;;;;;;;5.53;3.72;;;11.20;99.90;;;11.29;100.00;101177.03;5200573;28;20071;-68
2023/05/14 02:14:38;;;;;;;5.95;4.00;;;11.20;99.90;;;11.30;100.00;101178.81;5216951;28;20136;-69
2023/05/14 02:17:10;;;;;;;5.20;4.03;;;11.20;99.90;;;11.30;100.00;101180.53;5200995;28;20126;-68
2023/05/14 02:19:43;;;;;;;5.93;3.83;;;11.20;99.90;;;11.27;100.00;101175.19;5198514;28;20041;-68
2023/05/14 02:22:15;;;;;;;6.53;4.00;;;11.20;99.90;;;11.24;100.00;101183.81;5211156;28;20044;-68
2023/05/14 02:24:50;;;;;;;5.60;4.10;;;11.10;99.90;;;11.21;100.00;101180.16;5215809;28;20049;-69
2023/05/14 02:27:23;;;;;;;5.60;3.88;;;11.10;99.90;;;11.17;100.00;101178.28;5213758;28;20091;-70
2023/05/14 02:29:59;;;;;;;5.78;3.97;;;11.10;99.90;;;11.12;100.00;101175.50;5216678;28;20033;-68
2023/05/14 02:32:31;;;;;;;6.60;4.10;;;11.10;99.90;;;11.08;100.00;101174.50;5216362;28;20061;-68
2023/05/14 02:35:05;;;;;;;6.80;4.43;;;11.00;99.90;;;11.06;100.00;101175.25;5200114;28;20059;-68
2023/05/14 02:37:37;;;;;;;5.95;3.80;;;11.00;99.90;;;11.05;100.00;101174.38;5217257;28;20056;-68
2023/05/14 02:40:12;;;;;;;6.75;4.25;;;11.00;99.90;;;11.04;100.00;101172.59;5213979;28;20054;-69
2023/05/14 02:42:44;;;;;;;8.73;4.40;;;11.00;99.90;;;11.00;100.00;101173.28;5214111;28;20057;-69
2023/05/14 02:45:16;;;;;;;6.90;4.43;;;10.90;99.90;;;10.97;100.00;101173.19;5212405;28;20091;-70
2023/05/14 02:47:48;;;;;;;5.57;3.55;;;10.90;99.90;;;10.93;100.00;101180.84;5189056;28;20049;-70
2023/05/14 02:50:21;;;;;;;6.85;3.95;;;10.80;99.90;;;10.89;100.00;101174.63;5199721;28;20068;-70
2023/05/14 02:52:53;;;;;;;7.13;3.83;;;10.80;99.90;;;10.86;100.00;101175.38;5196497;28;20055;-69
2023/05/14 02:55:26;;;;;;;5.78;3.75;;;10.80;99.90;;;10.83;100.00;101171.78;5195522;28;20187;-69
2023/05/14 02:57:58;;;;;;;5.65;3.90;;;10.80;99.90;;;10.79;100.00;101169.84;5197890;28;20075;-69
2023/05/14 03:00:31;;;;;;;5.10;3.55;;;10.70;99.90;;;10.75;100.00;101168.84;5199770;28;20037;-68
2023/05/14 03:03:03;;;;;;;5.35;3.42;;;10.70;99.90;;;10.74;100.00;101171.38;5211283;28;20605;-69
2023/05/14 03:05:36;;;;;;;4.25;2.90;;;10.70;99.90;;;10.68;100.00;101171.13;5194836;28;20049;-68
2023/05/14 03:08:08;;;;;;;4.55;3.22;;;10.70;99.90;;;10.63;100.00;101172.66;5205001;28;20045;-70
2023/05/14 03:10:42;;;;;;;5.25;3.55;;;10.60;99.90;;;10.57;100.00;101163.78;5215991;28;20048;-69
2023/05/14 03:13:16;;;;;;;7.65;3.42;;;10.50;99.90;;;10.55;100.00;101164.53;5211766;28;20564;-69
2023/05/14 03:15:53;;;;;;;4.35;3.50;;;10.50;99.90;;;10.50;100.00;101159.16;5186798;28;20127;-69
2023/05/14 03:18:27;;;;;;;5.20;3.33;;;10.40;99.90;;;10.47;100.00;101166.84;5195363;28;20413;-69
2023/05/14 03:20:59;;;;;;;5.72;3.47;;;10.40;99.90;;;10.43;100.00;101161.41;5218577;28;20049;-67
2023/05/14 03:23:33;;;;;;;7.07;4.47;;;10.40;99.90;;;10.40;100.00;101175.22;5202406;28;20053;-70
2023/05/14 03:26:07;;;;;;;6.13;4.07;;;10.40;99.90;;;10.43;100.00;101164.03;5186416;28;20099;-69
2023/05/14 03:28:40;;;;;;;7.13;4.07;;;10.40;99.90;;;10.46;100.00;101166.78;5202785;28;20061;-69
2023/05/14 03:31:12;;;;;;;7.25;4.43;;;10.40;99.90;;;10.47;100.00;101166.84;5212079;28;20053;-69
2023/05/14 03:33:44;;;;;;;7.18;4.25;;;10.40;99.90;;;10.48;100.00;101163.41;5195163;28;20154;-69
2023/05/14 03:36:16;;;;;;;6.53;3.92;;;10.40;99.90;;;10.49;100.00;101159.97;5219404;28;20046;-68
2023/05/14 03:38:48;;;;;;;7.57;4.45;;;10.40;99.90;;;10.48;100.00;101160.78;5213634;28;20045;-70
2023/05/14 03:41:23;;;;;;;5.72;3.50;;;10.40;99.90;;;10.45;100.00;101158.06;5218418;28;20406;-69
2023/05/14 03:43:55;;;;;;;6.05;3.47;;;10.40;99.90;;;10.42;100.00;101163.13;5196248;28;20604;-69
2023/05/14 03:46:27;;;;;;;6.15;3.90;;;10.40;99.90;;;10.40;100.00;101164.81;5216494;28;20040;-68
2023/05/14 03:49:01;;;;;;;5.50;3.97;;;10.40;99.90;;;10.38;100.00;101160.38;5198109;28;20137;-69
2023/05/14 03:51:33;;;;;;;6.05;3.92;;;10.40;99.90;;;10.36;100.00;101168.09;5197892;28;20106;-67
2023/05/14 03:54:06;;;;;;;6.68;3.80;;;10.30;99.90;;;10.33;100.00;101168.88;5194467;28;20145;-68
2023/05/14 03:56:41;;;;;;;5.47;3.90;;;10.30;99.90;;;10.31;100.00;101159.22;5202060;28;20051;-69
2023/05/14 03:59:13;;;;;;;;;;;10.20;99.90;;;10.30;100.00;101160.03;5204927;28;20041;-69
2023/05/14 04:01:45;;;;;;;5.65;3.83;;;10.20;99.90;;;10.33;100.00;101157.56;5193659;28;19927;-70
2023/05/14 04:04:18;;;;;;;5.72;3.38;;;10.30;99.90;;;10.37;100.00;101151.66;5191499;28;20044;-70
2023/05/14 04:06:50;;;;;;;6.18;3.70;;;10.30;99.90;;;10.37;100.00;101153.34;5197674;28;20136;-68
2023/05/14 04:09:23;;;;;;;6.13;4.03;;;10.30;99.90;;;10.40;100.00;101156.97;5215859;28;20046;-68
2023/05/14 04:11:57;;;;;;;6.97;3.92;;;10.30;99.90;;;10.41;100.00;101163.97;5188871;28;20615;-68
2023/05/14 04:14:30;;;;;;;7.30;4.38;;;10.40;99.90;;;10.41;100.00;101158.75;5216105;28;20052;-70
2023/05/14 04:17:02;;;;;;;5.40;3.63;;;10.40;99.90;;;10.38;100.00;101155.16;5212474;28;20038;-71
2023/05/14 04:19:34;;;;;;;5.80;3.88;;;10.40;99.90;;;10.35;100.00;101157.63;5219119;28;20075;-75
2023/05/14 04:22:08;;;;;;;6.63;3.88;;;10.30;99.90;;;10.34;100.00;101154.13;5210893;28;20088;-69
2023/05/14 04:24:40;;;;;;;5.45;3.75;;;10.30;99.90;;;10.35;100.00;101158.50;5210874;28;20125;-68
2023/05/14 04:27:19;;;;;;;5.80;3.88;;;10.30;99.90;;;10.37;100.00;101156.88;5186151;28;20049;-69
2023/05/14 04:29:52;;;;;;;5.70;3.90;;;10.30;99.90;;;10.40;100.00;101162.19;5212859;28;20069;-69
2023/05/14 04:32:24;;;;;;;6.40;3.58;;;10.40;99.90;;;10.45;100.00;101159.78;5217340;28;20045;-69
2023/05/14 04:34:56;;;;;;;6.63;3.90;;;10.40;99.90;;;10.47;100.00;101165.94;5213222;28;20042;-69
2023/05/14 04:37:28;;;;;;;5.75;4.10;;;10.50;99.90;;;10.51;100.00;101163.53;5215836;28;20127;-69
2023/05/14 04:40:00;;;;;;;7.05;4.30;;;10.50;99.90;;;10.54;100.00;101167.97;5202413;28;20076;-69
2023/05/14 04:42:34;;;;;;;6.32;4.30;;;10.50;99.90;;;10.54;100.00;101161.03;5200130;28;20052;-69
2023/05/14 04:45:08;;;;;;;7.00;4.35;;;10.50;99.90;;;10.59;100.00;101172.56;5196555;28;20106;-68
2023/05/14 04:47:41;;;;;;;6.25;4.60;;;10.60;99.90;;;10.67;100.00;101164.16;5215088;28;20064;-69
2023/05/14 04:50:13;;;;;;;6.65;4.57;;;10.70;99.90;;;10.83;100.00;101161.34;5203451;28;20042;-69
2023/05/14 04:52:45;;;;;;;7.68;4.85;;;10.70;99.90;;;11.04;100.00;101171.72;5218191;28;20053;-68
2023/05/14 04:55:17;;;;;;;12.10;5.60;;;10.90;99.90;;;11.25;100.00;101171.63;5209941;28;20067;-68
2023/05/14 04:57:51;;;;;;;7.53;4.70;;;11.20;99.90;;;11.50;100.00;101176.94;5211505;28;20497;-69
2023/05/14 05:00:23;;;;;;;8.85;5.72;;;11.40;99.90;;;11.72;100.00;101182.94;5215167;28;20041;-68
2023/05/14 05:02:55;;;;;;;7.80;4.65;;;11.60;99.90;;;11.91;100.00;101188.91;5212660;28;20552;-69
2023/05/14 05:05:27;;;;;;;8.35;5.20;;;11.80;99.90;;;12.08;100.00;101192.16;5224266;22;20568;-68
2023/05/14 05:08:00;;;;;;;7.95;4.82;;;11.90;99.90;;;12.22;100.00;101183.06;5205794;28;20045;-68
2023/05/14 05:10:32;;;;;;;9.63;5.85;;;12.10;99.90;;;12.39;100.00;101178.41;5185147;28;20049;-69
2023/05/14 05:13:05;;;;;;;9.68;6.15;;;12.20;99.90;;;12.57;100.00;101185.06;5186492;28;20037;-67
2023/05/14 05:15:37;;;;;;;9.55;6.40;;;12.30;99.90;;;12.79;100.00;101184.94;5201483;28;20052;-68
2023/05/14 05:18:10;;;;;;;9.50;6.10;;;12.60;99.90;;;13.02;100.00;101180.41;5190817;28;20057;-69
2023/05/14 05:20:42;;;;;;;9.73;6.28;;;12.80;99.90;;;13.17;100.00;101186.13;5190225;28;20042;-67
2023/05/14 05:23:14;;;;;;;9.32;6.20;;;12.90;99.90;;;13.28;100.00;101191.69;5194782;28;20124;-68
2023/05/14 05:25:47;;;;;;;9.93;6.97;;;13.00;99.90;;;13.44;100.00;101187.84;5202169;28;20037;-68
2023/05/14 05:28:20;;;;;;;8.98;6.22;;;13.20;99.90;;;13.60;100.00;101189.16;5186128;28;20049;-68
2023/05/14 05:30:52;;;;;;;9.50;5.93;;;13.30;99.90;;;13.82;100.00;101187.19;5195826;28;20046;-67
2023/05/14 05:33:24;;;;;;;8.95;6.03;;;13.50;99.90;;;14.02;100.00;101185.13;5207330;28;20112;-67
2023/05/14 05:35:57;;;;;;;9.68;5.82;;;13.60;99.90;;;14.22;100.00;101188.25;5187634;28;20415;-67
2023/05/14 05:38:29;;;;;;;10.15;5.45;;;13.80;99.90;;;14.37;100.00;101179.91;5193025;28;20125;-68
2023/05/14 05:41:01;;;;;;;9.57;5.40;;;14.00;99.90;;;14.52;100.00;101189.91;5185462;28;20045;-68
2023/05/14 05:43:35;;;;;;;8.48;5.60;;;14.10;99.90;;;14.72;100.00;101186.03;5194834;28;20056;-67
2023/05/14 05:46:07;;;;;;;9.27;5.32;;;14.30;99.90;;;14.90;100.00;101181.22;5205184;28;20042;-67
2023/05/14 05:48:39;;;;;;;8.82;5.28;;;14.50;99.90;;;15.07;100.00;101175.50;5191158;28;20046;-68
2023/05/14 05:51:12;;;;;;;9.35;5.32;;;14.60;99.90;;;15.20;100.00;101170.53;5197179;28;20047;-68
2023/05/14 05:53:44;;;;;;;8.38;5.28;;;14.80;99.90;;;15.37;100.00;101178.78;5189855;28;20080;-67
2023/05/14 05:56:16;;;;;;;6.63;4.60;;;14.90;99.90;;;15.53;100.00;101173.84;5198461;28;20522;-67
2023/05/14 05:58:50;;;;;;;6.95;4.90;;;15.10;99.90;;;15.68;100.00;101174.19;5187799;28;20049;-69
2023/05/14 06:01:23;;;;;;;7.20;4.88;;;15.20;99.90;;;15.83;100.00;101169.22;5198948;28;20111;-68
2023/05/14 06:03:55;;;;;;;8.13;5.30;;;15.40;99.90;;;15.96;100.00;101168.59;5203766;28;20041;-56
2023/05/14 06:06:28;;;;;;;6.97;4.78;;;15.50;99.90;;;16.12;100.00;101182.94;5199375;28;20052;-55
2023/05/14 06:09:01;;;;;;;6.43;4.47;;;15.70;99.90;;;16.18;100.00;101184.78;5205208;28;20048;-55
2023/05/14 06:11:33;;;;;;;6.78;4.72;;;15.80;99.90;;;16.33;100.00;101181.53;5187494;28;20049;-54
2023/05/14 06:14:06;;;;;;;7.40;4.88;;;15.90;99.90;;;16.48;100.00;101187.94;5202721;28;20670;-58
2023/05/14 06:16:38;;;;;;;6.57;4.47;;;16.00;99.90;;;16.62;100.00;101185.53;5200743;28;20121;-54
2023/05/14 06:19:10;;;;;;;6.70;4.70;;;16.20;99.90;;;16.71;100.00;101190.13;5186347;28;20182;-55
2023/05/14 06:21:43;;;;;;;6.57;4.38;;;16.20;99.90;;;16.89;100.00;101195.69;5183228;28;20041;-55
2023/05/14 06:24:15;;;;;;;8.93;4.40;;;16.40;99.90;;;17.14;100.00;101196.00;5197220;28;20049;-56
2023/05/14 06:26:48;;;;;;;6.63;4.45;;;16.60;99.90;;;17.33;100.00;101192.78;5189340;28;20034;-56
2023/05/14 06:29:21;;;;;;;6.75;4.32;;;16.80;99.90;;;17.50;100.00;101191.25;5200185;28;20110;-55
2023/05/14 06:31:53;;;;;;;6.90;4.43;;;16.90;99.90;;;17.61;99.46;101194.03;5203563;28;20048;-58
2023/05/14 06:34:25;;;;;;;6.28;4.55;;;17.00;99.90;;;17.72;98.93;101191.53;5198793;28;20046;-56
2023/05/14 06:36:57;;;;;;;7.30;4.40;;;17.10;99.90;;;17.92;98.60;101190.00;5204605;28;20069;-57
2023/05/14 06:39:29;;;;;;;8.52;4.40;;;17.30;99.90;;;18.00;96.93;101188.38;5195560;28;20046;-57
2023/05/14 06:42:02;;;;;;;8.63;4.53;;;17.40;99.90;;;17.89;96.61;101190.88;5182271;28;20042;-57
2023/05/14 06:44:37;;;;;;;6.65;4.22;;;17.40;99.90;;;17.68;97.08;101187.09;5182833;28;20061;-57
2023/05/14 06:47:09;;;;;;;5.60;4.00;;;17.20;99.90;;;17.49;99.06;101186.84;5181692;28;20048;-56
2023/05/14 06:49:41;;;;;;;7.47;4.28;;;17.10;99.90;;;17.39;100.00;101192.84;5183623;28;20117;-56
2023/05/14 06:52:13;;;;;;;6.95;4.35;;;17.00;99.90;;;17.42;100.00;101182.38;5182123;28;20437;-56
2023/05/14 06:54:45;;;;;;;5.75;4.13;;;17.00;99.90;;;17.56;100.00;101180.78;5185418;28;20405;-53
2023/05/14 06:57:17;;;;;;;6.10;4.63;;;17.10;99.90;;;17.80;99.99;101179.31;5184507;28;20034;-56
2023/05/14 06:59:51;;;;;;;6.47;4.70;;;17.20;99.90;;;18.07;97.91;101178.78;5184573;28;20065;-56
2023/05/14 07:02:23;;;;;;;8.15;4.50;;;17.50;99.90;;;18.34;94.84;101178.16;5184231;28;20132;-55
2023/05/14 07:04:55;;;;;;;6.93;4.72;;;17.70;99.90;;;18.64;94.20;101182.78;5184008;28;20046;-58
2023/05/14 07:07:27;;;;;;;6.55;4.50;;;18.00;99.90;;;18.94;91.68;101182.16;5184581;28;20096;-56
2023/05/14 07:10:00;;;;;;;6.60;4.07;;;18.30;99.90;;;19.21;90.62;101187.63;5183990;28;20038;-55
2023/05/14 07:12:32;;;;;;;6.30;4.13;;;18.50;99.90;;;19.41;89.45;101190.38;5183844;28;20049;-54
2023/05/14 07:15:08;;;;;;;7.50;4.10;;;18.70;99.90;;;19.56;88.78;101188.66;5176592;28;20046;-55
2023/05/14 07:17:40;;;;;;;5.55;4.15;;;18.90;99.90;;;19.66;88.97;101187.88;5176512;28;20037;-55
2023/05/14 07:20:13;;;;;;;6.70;4.22;;;19.00;99.90;;;19.79;88.27;101193.19;5183865;28;20525;-57
2023/05/14 07:22:45;;;;;;;6.30;3.85;;;19.10;99.90;;;19.90;88.25;101189.72;5184145;28;20038;-56
2023/05/14 07:25:17;;;;;;;7.10;4.22;;;19.20;99.90;;;20.05;88.02;101185.34;5180473;28;20045;-57
2023/05/14 07:27:49;;;;;;;6.85;3.70;;;19.40;99.90;;;20.15;87.52;101180.03;5180520;28;20042;-57
2023/05/14 07:30:22;;;;;;;7.03;4.18;;;19.40;99.90;;;20.27;87.58;101173.00;5168931;28;20038;-57
2023/05/14 07:32:54;;;;;;;5.35;4.05;;;19.60;99.90;;;20.42;86.86;101173.94;5183647;28;20636;-56
2023/05/14 07:35:27;;;;;;;5.32;3.67;;;19.70;99.60;;;20.58;87.25;101170.41;5176455;28;20051;-57
2023/05/14 07:37:59;;;;;;;5.18;3.60;;;19.80;99.80;;;20.65;86.11;101172.16;5184178;28;20048;-57
2023/05/14 07:40:31;;;;;;;3.63;3.22;;;19.90;99.20;;;20.72;86.06;101167.75;5184534;28;20112;-57
2023/05/14 07:43:03;;;;;;;4.07;3.15;;;20.00;99.20;;;20.78;85.36;101173.03;5184351;28;20053;-57
2023/05/14 07:45:37;;;;;;;4.88;3.45;;;20.00;98.90;;;20.95;84.54;101167.75;5176898;28;20099;-56
2023/05/14 07:48:10;;;;;;;7.50;3.80;;;20.10;98.60;;;21.22;83.88;101167.66;5183823;28;20514;-58
2023/05/14 07:50:42;;;;;;;5.35;3.70;;;20.30;98.40;;;21.45;81.54;101172.91;5176465;28;20042;-57
2023/05/14 07:53:14;;;;;;;5.45;3.33;;;20.50;97.40;;;21.61;80.53;101168.44;5169846;28;20045;-56
2023/05/14 07:55:47;;;;;;;4.40;3.40;;;20.60;96.60;;;21.74;78.97;101159.53;5174260;28;20092;-57
2023/05/14 07:58:19;;;;;;;4.15;3.13;;;20.80;95.80;;;21.91;77.38;101159.44;5171102;28;20042;-59
2023/05/14 08:00:52;;;;;;;4.95;3.50;;;20.90;94.70;;;22.14;77.18;101157.53;5176973;28;20042;-59
2023/05/14 08:03:24;;;;;;;4.45;3.08;;;21.00;94.60;;;22.35;76.10;101153.81;5168159;28;20041;-57
2023/05/14 08:05:56;;;;;;;5.53;3.10;;;21.20;93.90;;;22.62;74.85;101157.16;5174747;28;20494;-59
2023/05/14 08:08:28;;;;;;;3.78;2.60;;;21.30;93.40;;;22.98;73.45;101155.94;5176621;28;20416;-58
2023/05/14 08:11:02;;;;;;;4.13;3.28;;;21.60;92.30;;;23.46;71.47;101159.81;5174357;28;20045;-57
2023/05/14 08:13:34;;;;;;;4.18;3.10;;;21.80;91.60;;;23.93;71.53;101155.69;5181989;28;20038;-57
2023/05/14 08:16:08;;;;;;;4.00;2.88;;;22.10;91.40;;;24.39;68.61;101155.00;5168969;28;20045;-60
2023/05/14 08:18:40;;;;;;;6.15;3.30;;;22.40;90.00;;;24.93;66.62;101152.25;5181672;28;20044;-58
2023/05/14 08:21:12;;;;;;;4.60;2.95;;;22.60;87.30;;;25.53;65.57;101159.97;5178734;28;20049;-59
2023/05/14 08:23:44;;;;;;;4.22;3.03;;;22.90;86.30;;;26.22;65.98;101156.66;5182574;28;20053;-58
2023/05/14 08:26:16;;;;;;;3.35;2.50;;;23.30;87.50;;;26.93;63.04;101152.19;5182186;28;20061;-58
2023/05/14 08:28:48;;;;;;;4.55;2.85;;;23.60;84.20;;;27.68;61.82;101150.06;5175267;28;20406;-59
2023/05/14 08:31:22;;;;;;;3.42;2.35;;;24.00;83.40;;;28.51;60.40;101148.34;5160848;28;20404;-62
2023/05/14 08:33:54;;;;;;;2.70;2.22;;;24.40;82.30;;;29.42;58.33;101146.88;5178710;28;20053;-57
2023/05/14 08:36:26;;;;;;;3.90;2.38;;;24.90;80.60;;;30.68;54.30;101145.44;5178771;28;20043;-58
2023/05/14 08:38:58;;;;;;;3.97;2.53;;;25.80;76.70;;;31.59;50.73;101153.91;5179097;28;20523;-58
2023/05/14 08:41:31;;;;;;;2.80;2.33;;;26.80;70.60;;;32.20;49.73;101150.94;5175590;28;20522;-58
2023/05/14 08:44:09;;;;;;;3.50;2.10;;;27.50;68.70;;;32.66;50.12;101152.22;5181889;28;20042;-58
2023/05/14 08:46:42;;;;;;;3.85;2.20;;;28.10;67.10;;;33.16;48.25;101154.13;5182851;28;20479;-57
2023/05/14 08:49:24;;;;;;;2.55;2.05;;;28.70;64.60;;;33.63;47.92;101150.66;5181591;28;20422;-58
2023/05/14 08:51:57;;;;;;;3.05;2.25;;;29.20;63.50;;;33.88;46.11;101147.44;5174152;28;20117;-65
2023/05/14 08:54:31;;;;;;;2.60;1.95;;;29.50;61.10;;;34.24;48.17;101151.75;5182860;28;20407;-61
2023/05/14 08:57:04;;;;;;;3.95;2.50;;;29.90;61.70;;;34.39;47.00;101149.94;5181817;28;20034;-61
2023/05/14 08:59:36;;;;;;;2.70;2.20;;;30.10;61.70;;;34.49;46.44;101135.78;5174899;28;20521;-63
2023/05/14 09:02:11;;;;;;;2.25;2.03;;;30.20;60.30;;;34.49;45.59;101140.34;5182378;28;20076;-64
2023/05/14 09:04:44;;;;;;;3.90;2.10;;;30.20;59.30;;;34.60;45.68;101137.00;5181878;28;20068;-64
2023/05/14 09:07:16;;;;;;;3.53;2.00;;;30.20;59.00;;;34.44;45.58;101134.34;5181657;28;20490;-60
2023/05/14 09:09:49;;;;;;;2.85;2.28;;;30.20;58.80;;;34.23;45.62;101128.31;5176043;28;20045;-62
2023/05/14 09:12:22;;;;;;;3.45;2.17;;;30.10;58.70;;;33.87;45.82;101132.19;5173050;28;20042;-62
2023/05/14 09:14:54;;;;;;;2.80;2.30;;;30.00;58.60;;;33.58;46.24;101131.16;5174117;28;20406;-61
2023/05/14 09:17:27;;;;;;;2.97;2.30;;;29.90;58.60;;;33.09;46.53;101128.41;5169674;28;20038;-62
2023/05/14 09:20:00;;;;;;;3.92;2.28;;;29.70;58.00;;;32.40;47.66;101125.69;5171156;28;20491;-63
2023/05/14 09:22:32;;;;;;;2.75;2.25;;;29.40;58.60;;;31.47;49.39;101130.22;5180157;28;20410;-60
2023/05/14 09:25:08;;;;;;;2.55;2.30;;;29.00;59.30;;;30.59;51.00;101124.28;5181565;28;20440;-58
2023/05/14 09:27:40;;;;;;;2.20;2.00;;;28.50;60.20;;;29.75;53.28;101114.31;5164012;28;20137;-59
2023/05/14 09:30:14;;;;;;;2.60;2.20;;;28.00;61.80;;;28.78;54.41;101109.84;5180990;28;20045;-59
2023/05/14 09:32:49;;;;;;;2.95;2.33;;;27.40;62.20;;;27.96;55.64;101105.44;5181364;28;20045;-60
2023/05/14 09:35:24;;;;;;;2.65;2.13;;;26.80;62.90;;;27.47;56.68;101106.09;5173814;28;20057;-59
2023/05/14 09:37:56;;;;;;;3.63;2.67;;;26.30;63.70;;;26.96;57.79;101107.53;5164372;28;20042;-60
2023/05/14 09:40:28;;;;;;;3.05;2.53;;;25.90;64.60;;;26.43;59.82;101100.97;5172866;28;20045;-59
2023/05/14 09:43:01;;;;;;;2.90;2.35;;;25.50;66.00;;;26.07;60.89;101098.25;5180878;28;20042;-58
2023/05/14 09:45:34;;;;;;;3.10;2.38;;;25.10;66.90;;;25.94;61.80;101096.78;5174792;28;20048;-60
2023/05/14 09:48:08;;;;;;;3.15;2.45;;;24.90;68.00;;;25.97;62.23;101099.41;5180035;28;20050;-60
2023/05/14 09:50:42;;;;;;;3.65;2.63;;;24.90;68.90;;;25.99;61.26;101092.22;5164191;28;20136;-59
2023/05/14 09:53:16;;;;;;;4.03;2.63;;;24.90;68.30;;;25.98;62.22;101085.13;5181034;28;20054;-59
2023/05/14 09:55:48;;;;;;;2.92;2.50;;;24.90;69.20;;;25.75;63.05;101090.13;5181781;28;20212;-58
2023/05/14 09:58:20;;;;;;;3.85;2.83;;;24.70;69.50;;;25.62;62.61;101085.03;5181331;28;20188;-62
2023/05/14 10:00:54;;;;;;;2.78;2.45;;;24.60;69.70;;;25.57;62.45;101081.59;5178021;28;20046;-59
2023/05/14 10:03:30;;;;;;;2.78;2.42;;;24.60;69.30;;;25.48;63.20;101080.91;5163639;28;20413;-59
2023/05/14 10:06:06;;;;;;;3.70;2.75;;;24.50;70.30;;;25.37;63.96;101076.72;5181732;28;20052;-58
2023/05/14 10:08:44;;;;;;;3.80;2.55;;;24.40;71.00;;;25.44;64.34;101075.66;5173997;28;20048;-56
2023/05/14 10:11:23;;;;;;;3.08;2.42;;;24.40;71.50;;;25.51;64.09;101068.41;5157201;28;20046;-57
2023/05/14 10:14:03;;;;;;;3.70;2.70;;;24.50;71.40;;;25.58;63.84;101062.00;5173881;28;20476;-59
2023/05/14 10:16:41;;;;;;;2.97;2.63;;;24.50;71.30;;;25.63;64.14;101062.78;5158872;28;20072;-60
2023/05/14 10:19:16;;;;;;;2.80;2.30;;;24.60;71.80;;;25.59;63.66;101057.53;5177102;28;20470;-62
2023/05/14 10:21:56;;;;;;;2.53;2.33;;;24.60;71.20;;;25.58;64.11;101051.31;5185531;28;20877;-61
2023/05/14 10:24:29;;;;;;;3.15;2.35;;;24.50;72.20;;;25.55;64.37;101050.50;5185127;28;20042;-58
2023/05/14 10:27:01;;;;;;;2.53;2.33;;;24.50;72.00;;;25.62;64.33;101054.78;5177066;28;20046;-61
2023/05/14 10:29:35;;;;;;;3.13;2.70;;;24.60;72.90;;;25.74;64.85;101057.19;5182198;28;20103;-61
2023/05/14 10:32:08;;;;;;;4.18;3.08;;;24.60;72.60;;;25.63;63.42;101048.56;5182954;28;20050;-61